sensor_id;sensor_type;location;lat;lon;timestamp;temperature;humidity
24226;DHT22;51462;51.422;5.514;2022-08-21T00:01:20;17.10;99.90
24226;DHT22;51462;51.422;5.514;2022-08-21T00:03:46;17.00;99.90
24226;DHT22;51462;51.422;5.514;2022-08-21T00:06:12;17.00;99.90
24226;DHT22;51462;51.422;5.514;2022-08-21T00:08:38;17.00;99.90
24226;DHT22;51462;51.422;5.514;2022-08-21T00:11:05;17.00;99.90
24226;DHT22;51462;51.422;5.514;2022-08-21T00:13:30;16.90;99.90
24226;DHT22;51462;51.422;5.514;2022-08-21T00:15:57;17.00;99.90
24226;DHT22;51462;51.422;5.514;2022-08-21T00:18:23;17.20;99.90
24226;DHT22;51462;51.422;5.514;2022-08-21T00:20:48;17.00;99.90
24226;DHT22;51462;51.422;5.514;2022-08-21T00:23:14;16.80;99.90
24226;DHT22;51462;51.422;5.514;2022-08-21T00:25:41;16.70;99.90
24226;DHT22;51462;51.422;5.514;2022-08-21T00:28:07;16.60;99.90
24226;DHT22;51462;51.422;5.514;2022-08-21T00:30:34;16.60;99.90
24226;DHT22;51462;51.422;5.514;2022-08-21T00:33:00;16.50;99.90
24226;DHT22;51462;51.422;5.514;2022-08-21T00:35:34;16.40;99.90
24226;DHT22;51462;51.422;5.514;2022-08-21T00:38:00;16.40;99.90
24226;DHT22;51462;51.422;5.514;2022-08-21T00:40:44;16.30;99.90
24226;DHT22;51462;51.422;5.514;2022-08-21T00:43:13;16.30;99.90
24226;DHT22;51462;51.422;5.514;2022-08-21T00:45:39;16.20;99.90
24226;DHT22;51462;51.422;5.514;2022-08-21T00:48:05;16.20;99.90
24226;DHT22;51462;51.422;5.514;2022-08-21T00:50:33;16.10;99.90
24226;DHT22;51462;51.422;5.514;2022-08-21T00:52:59;16.00;99.90
24226;DHT22;51462;51.422;5.514;2022-08-21T00:55:26;16.10;99.90
24226;DHT22;51462;51.422;5.514;2022-08-21T00:57:55;16.20;99.90
24226;DHT22;51462;51.422;5.514;2022-08-21T01:00:26;16.20;99.90
24226;DHT22;51462;51.422;5.514;2022-08-21T01:02:55;16.10;99.90
24226;DHT22;51462;51.422;5.514;2022-08-21T01:05:21;16.30;99.90
24226;DHT22;51462;51.422;5.514;2022-08-21T01:07:46;16.20;99.90
24226;DHT22;51462;51.422;5.514;2022-08-21T01:10:12;16.00;99.90
24226;DHT22;51462;51.422;5.514;2022-08-21T01:12:39;16.40;99.90
24226;DHT22;51462;51.422;5.514;2022-08-21T01:15:06;16.70;99.90
24226;DHT22;51462;51.422;5.514;2022-08-21T01:17:33;16.60;99.90
24226;DHT22;51462;51.422;5.514;2022-08-21T01:20:00;16.40;99.90
24226;DHT22;51462;51.422;5.514;2022-08-21T01:22:26;16.30;99.90
24226;DHT22;51462;51.422;5.514;2022-08-21T01:24:52;16.20;99.90
24226;DHT22;51462;51.422;5.514;2022-08-21T01:27:18;16.30;99.90
24226;DHT22;51462;51.422;5.514;2022-08-21T01:32:14;16.40;99.90
24226;DHT22;51462;51.422;5.514;2022-08-21T01:34:42;16.40;99.90
24226;DHT22;51462;51.422;5.514;2022-08-21T01:37:09;16.60;99.90
24226;DHT22;51462;51.422;5.514;2022-08-21T01:39:35;16.60;99.90
24226;DHT22;51462;51.422;5.514;2022-08-21T01:42:01;17.10;99.90
24226;DHT22;51462;51.422;5.514;2022-08-21T01:44:26;16.70;99.90
24226;DHT22;51462;51.422;5.514;2022-08-21T01:46:52;16.20;99.90
24226;DHT22;51462;51.422;5.514;2022-08-21T01:49:19;16.00;99.90
24226;DHT22;51462;51.422;5.514;2022-08-21T01:51:45;15.90;99.90
24226;DHT22;51462;51.422;5.514;2022-08-21T01:54:11;15.70;99.90
24226;DHT22;51462;51.422;5.514;2022-08-21T01:56:46;15.60;99.90
24226;DHT22;51462;51.422;5.514;2022-08-21T01:59:12;15.90;99.90
24226;DHT22;51462;51.422;5.514;2022-08-21T02:01:37;15.60;99.90
24226;DHT22;51462;51.422;5.514;2022-08-21T02:04:05;15.60;99.90
24226;DHT22;51462;51.422;5.514;2022-08-21T02:06:31;15.70;99.90
24226;DHT22;51462;51.422;5.514;2022-08-21T02:08:57;15.60;99.90
24226;DHT22;51462;51.422;5.514;2022-08-21T02:11:22;15.60;99.90
24226;DHT22;51462;51.422;5.514;2022-08-21T02:13:48;15.50;99.90
24226;DHT22;51462;51.422;5.514;2022-08-21T02:16:14;15.80;99.90
24226;DHT22;51462;51.422;5.514;2022-08-21T02:18:40;16.10;99.90
24226;DHT22;51462;51.422;5.514;2022-08-21T02:21:06;15.90;99.90
24226;DHT22;51462;51.422;5.514;2022-08-21T02:23:32;15.60;99.90
24226;DHT22;51462;51.422;5.514;2022-08-21T02:25:59;15.80;99.90
24226;DHT22;51462;51.422;5.514;2022-08-21T02:28:25;15.90;99.90
24226;DHT22;51462;51.422;5.514;2022-08-21T02:30:52;15.70;99.90
24226;DHT22;51462;51.422;5.514;2022-08-21T02:33:17;15.50;99.90
24226;DHT22;51462;51.422;5.514;2022-08-21T02:35:45;15.60;99.90
24226;DHT22;51462;51.422;5.514;2022-08-21T02:38:17;15.30;99.90
24226;DHT22;51462;51.422;5.514;2022-08-21T02:40:46;15.10;99.90
24226;DHT22;51462;51.422;5.514;2022-08-21T02:43:12;15.00;99.90
24226;DHT22;51462;51.422;5.514;2022-08-21T02:45:38;14.90;99.90
24226;DHT22;51462;51.422;5.514;2022-08-21T02:48:10;14.90;99.90
24226;DHT22;51462;51.422;5.514;2022-08-21T02:50:45;15.00;99.90
24226;DHT22;51462;51.422;5.514;2022-08-21T02:53:12;15.00;99.90
24226;DHT22;51462;51.422;5.514;2022-08-21T02:55:40;15.10;99.90
24226;DHT22;51462;51.422;5.514;2022-08-21T02:58:07;15.00;99.90
24226;DHT22;51462;51.422;5.514;2022-08-21T03:00:35;15.00;99.90
24226;DHT22;51462;51.422;5.514;2022-08-21T03:03:01;14.90;99.90
24226;DHT22;51462;51.422;5.514;2022-08-21T03:05:28;14.90;99.90
24226;DHT22;51462;51.422;5.514;2022-08-21T03:07:56;14.80;99.90
24226;DHT22;51462;51.422;5.514;2022-08-21T03:10:23;14.90;99.90
24226;DHT22;51462;51.422;5.514;2022-08-21T03:12:50;14.80;99.90
24226;DHT22;51462;51.422;5.514;2022-08-21T03:15:18;14.90;99.90
24226;DHT22;51462;51.422;5.514;2022-08-21T03:17:45;14.90;99.90
24226;DHT22;51462;51.422;5.514;2022-08-21T03:20:12;14.80;99.90
24226;DHT22;51462;51.422;5.514;2022-08-21T03:22:39;14.90;99.90
24226;DHT22;51462;51.422;5.514;2022-08-21T03:25:05;14.80;99.90
24226;DHT22;51462;51.422;5.514;2022-08-21T03:27:31;14.70;99.90
24226;DHT22;51462;51.422;5.514;2022-08-21T03:29:57;14.70;99.90
24226;DHT22;51462;51.422;5.514;2022-08-21T03:32:23;14.80;99.90
24226;DHT22;51462;51.422;5.514;2022-08-21T03:34:48;14.80;99.90
24226;DHT22;51462;51.422;5.514;2022-08-21T03:37:14;14.90;99.90
24226;DHT22;51462;51.422;5.514;2022-08-21T03:39:40;15.00;99.90
24226;DHT22;51462;51.422;5.514;2022-08-21T03:42:07;14.90;99.90
24226;DHT22;51462;51.422;5.514;2022-08-21T03:44:33;15.00;99.90
24226;DHT22;51462;51.422;5.514;2022-08-21T03:46:59;15.00;99.90
24226;DHT22;51462;51.422;5.514;2022-08-21T03:49:26;14.90;99.90
24226;DHT22;51462;51.422;5.514;2022-08-21T03:51:51;15.10;99.90
24226;DHT22;51462;51.422;5.514;2022-08-21T03:54:17;15.10;99.90
24226;DHT22;51462;51.422;5.514;2022-08-21T03:56:43;15.20;99.90
24226;DHT22;51462;51.422;5.514;2022-08-21T03:59:09;15.40;99.90
24226;DHT22;51462;51.422;5.514;2022-08-21T04:01:35;15.40;99.90
24226;DHT22;51462;51.422;5.514;2022-08-21T04:04:02;15.70;99.90
24226;DHT22;51462;51.422;5.514;2022-08-21T04:06:28;16.20;99.90
24226;DHT22;51462;51.422;5.514;2022-08-21T04:08:53;15.90;99.90
24226;DHT22;51462;51.422;5.514;2022-08-21T04:11:20;15.80;99.90
24226;DHT22;51462;51.422;5.514;2022-08-21T04:13:46;15.90;99.90
24226;DHT22;51462;51.422;5.514;2022-08-21T04:16:12;16.10;99.90
24226;DHT22;51462;51.422;5.514;2022-08-21T04:18:38;15.80;99.90
24226;DHT22;51462;51.422;5.514;2022-08-21T04:21:04;15.30;99.90
24226;DHT22;51462;51.422;5.514;2022-08-21T04:23:30;15.10;99.90
24226;DHT22;51462;51.422;5.514;2022-08-21T04:25:56;15.20;99.90
24226;DHT22;51462;51.422;5.514;2022-08-21T04:28:27;15.00;99.90
24226;DHT22;51462;51.422;5.514;2022-08-21T04:30:53;15.10;99.90
24226;DHT22;51462;51.422;5.514;2022-08-21T04:33:20;15.20;99.90
24226;DHT22;51462;51.422;5.514;2022-08-21T04:35:46;15.00;99.90
24226;DHT22;51462;51.422;5.514;2022-08-21T04:38:11;15.10;99.90
24226;DHT22;51462;51.422;5.514;2022-08-21T04:40:37;14.90;99.90
24226;DHT22;51462;51.422;5.514;2022-08-21T04:43:05;14.80;99.90
24226;DHT22;51462;51.422;5.514;2022-08-21T04:45:33;14.90;99.90
24226;DHT22;51462;51.422;5.514;2022-08-21T04:48:00;15.10;99.90
24226;DHT22;51462;51.422;5.514;2022-08-21T04:53:26;15.00;99.90
24226;DHT22;51462;51.422;5.514;2022-08-21T04:55:52;14.80;99.90
24226;DHT22;51462;51.422;5.514;2022-08-21T04:58:20;14.80;99.90
24226;DHT22;51462;51.422;5.514;2022-08-21T05:00:47;14.70;99.90
24226;DHT22;51462;51.422;5.514;2022-08-21T05:03:14;14.90;99.90
24226;DHT22;51462;51.422;5.514;2022-08-21T05:05:41;14.90;99.90
24226;DHT22;51462;51.422;5.514;2022-08-21T05:08:07;14.90;99.90
24226;DHT22;51462;51.422;5.514;2022-08-21T05:10:34;15.10;99.90
24226;DHT22;51462;51.422;5.514;2022-08-21T05:13:00;14.90;99.90
24226;DHT22;51462;51.422;5.514;2022-08-21T05:15:26;14.90;99.90
24226;DHT22;51462;51.422;5.514;2022-08-21T05:17:51;14.90;99.90
24226;DHT22;51462;51.422;5.514;2022-08-21T05:20:17;15.20;99.90
24226;DHT22;51462;51.422;5.514;2022-08-21T05:22:45;14.90;99.90
24226;DHT22;51462;51.422;5.514;2022-08-21T05:25:11;15.10;99.90
24226;DHT22;51462;51.422;5.514;2022-08-21T05:27:38;15.50;99.90
24226;DHT22;51462;51.422;5.514;2022-08-21T05:30:05;15.50;99.90
24226;DHT22;51462;51.422;5.514;2022-08-21T05:32:32;15.60;99.90
24226;DHT22;51462;51.422;5.514;2022-08-21T05:34:58;15.60;99.90
24226;DHT22;51462;51.422;5.514;2022-08-21T05:37:23;15.70;99.90
24226;DHT22;51462;51.422;5.514;2022-08-21T05:39:49;15.60;99.90
24226;DHT22;51462;51.422;5.514;2022-08-21T05:42:14;16.10;99.90
24226;DHT22;51462;51.422;5.514;2022-08-21T05:44:40;16.00;99.90
24226;DHT22;51462;51.422;5.514;2022-08-21T05:47:07;15.70;99.90
24226;DHT22;51462;51.422;5.514;2022-08-21T05:49:33;16.00;99.90
24226;DHT22;51462;51.422;5.514;2022-08-21T05:51:59;16.30;99.90
24226;DHT22;51462;51.422;5.514;2022-08-21T05:54:25;16.30;99.90
24226;DHT22;51462;51.422;5.514;2022-08-21T05:56:50;16.20;99.90
24226;DHT22;51462;51.422;5.514;2022-08-21T05:59:17;16.00;99.90
24226;DHT22;51462;51.422;5.514;2022-08-21T06:01:44;16.20;99.90
24226;DHT22;51462;51.422;5.514;2022-08-21T06:04:10;16.30;99.90
24226;DHT22;51462;51.422;5.514;2022-08-21T06:06:36;16.60;99.90
24226;DHT22;51462;51.422;5.514;2022-08-21T06:09:03;16.50;99.90
24226;DHT22;51462;51.422;5.514;2022-08-21T06:11:28;16.40;99.90
24226;DHT22;51462;51.422;5.514;2022-08-21T06:13:54;16.80;99.90
24226;DHT22;51462;51.422;5.514;2022-08-21T06:16:20;16.50;99.90
24226;DHT22;51462;51.422;5.514;2022-08-21T06:18:45;16.80;99.90
24226;DHT22;51462;51.422;5.514;2022-08-21T06:21:11;16.30;99.90
24226;DHT22;51462;51.422;5.514;2022-08-21T06:23:38;16.50;99.90
24226;DHT22;51462;51.422;5.514;2022-08-21T06:26:05;16.70;99.90
24226;DHT22;51462;51.422;5.514;2022-08-21T06:28:32;16.90;99.90
24226;DHT22;51462;51.422;5.514;2022-08-21T06:30:58;16.80;99.90
24226;DHT22;51462;51.422;5.514;2022-08-21T06:33:24;16.60;99.90
24226;DHT22;51462;51.422;5.514;2022-08-21T06:35:50;16.80;99.90
24226;DHT22;51462;51.422;5.514;2022-08-21T06:38:16;16.90;99.90
24226;DHT22;51462;51.422;5.514;2022-08-21T06:40:41;17.30;99.90
24226;DHT22;51462;51.422;5.514;2022-08-21T06:43:12;17.30;99.90
24226;DHT22;51462;51.422;5.514;2022-08-21T06:45:38;16.90;99.90
24226;DHT22;51462;51.422;5.514;2022-08-21T06:48:04;16.90;99.90
24226;DHT22;51462;51.422;5.514;2022-08-21T06:50:32;16.70;99.90
24226;DHT22;51462;51.422;5.514;2022-08-21T06:52:59;16.70;99.90
24226;DHT22;51462;51.422;5.514;2022-08-21T06:55:25;16.60;99.90
24226;DHT22;51462;51.422;5.514;2022-08-21T06:57:51;16.90;99.90
24226;DHT22;51462;51.422;5.514;2022-08-21T07:00:16;17.00;99.90
24226;DHT22;51462;51.422;5.514;2022-08-21T07:02:42;17.10;99.90
24226;DHT22;51462;51.422;5.514;2022-08-21T07:05:07;17.00;99.90
24226;DHT22;51462;51.422;5.514;2022-08-21T07:07:33;17.20;99.90
24226;DHT22;51462;51.422;5.514;2022-08-21T07:09:58;17.10;99.90
24226;DHT22;51462;51.422;5.514;2022-08-21T07:12:24;17.20;99.90
24226;DHT22;51462;51.422;5.514;2022-08-21T07:14:51;17.30;99.90
24226;DHT22;51462;51.422;5.514;2022-08-21T07:17:17;17.40;99.90
24226;DHT22;51462;51.422;5.514;2022-08-21T07:19:42;17.40;99.90
24226;DHT22;51462;51.422;5.514;2022-08-21T07:22:08;17.60;99.90
24226;DHT22;51462;51.422;5.514;2022-08-21T07:24:34;17.60;99.90
24226;DHT22;51462;51.422;5.514;2022-08-21T07:26:59;17.60;99.90
24226;DHT22;51462;51.422;5.514;2022-08-21T07:29:25;17.50;99.90
24226;DHT22;51462;51.422;5.514;2022-08-21T07:31:51;17.80;99.90
24226;DHT22;51462;51.422;5.514;2022-08-21T07:34:17;17.80;99.90
24226;DHT22;51462;51.422;5.514;2022-08-21T07:36:42;17.80;99.90
24226;DHT22;51462;51.422;5.514;2022-08-21T07:39:08;17.90;99.90
24226;DHT22;51462;51.422;5.514;2022-08-21T07:41:33;18.00;99.90
24226;DHT22;51462;51.422;5.514;2022-08-21T07:43:59;18.00;99.90
24226;DHT22;51462;51.422;5.514;2022-08-21T07:46:25;17.90;99.90
24226;DHT22;51462;51.422;5.514;2022-08-21T07:48:52;17.80;99.90
24226;DHT22;51462;51.422;5.514;2022-08-21T07:51:19;18.00;99.90
24226;DHT22;51462;51.422;5.514;2022-08-21T07:53:50;18.20;99.90
24226;DHT22;51462;51.422;5.514;2022-08-21T07:56:17;18.20;99.90
24226;DHT22;51462;51.422;5.514;2022-08-21T07:58:42;18.20;99.90
24226;DHT22;51462;51.422;5.514;2022-08-21T08:01:08;18.30;99.90
24226;DHT22;51462;51.422;5.514;2022-08-21T08:03:34;18.40;99.90
24226;DHT22;51462;51.422;5.514;2022-08-21T08:06:00;18.60;99.90
24226;DHT22;51462;51.422;5.514;2022-08-21T08:08:26;18.60;99.90
24226;DHT22;51462;51.422;5.514;2022-08-21T08:10:53;18.70;99.90
24226;DHT22;51462;51.422;5.514;2022-08-21T08:13:19;18.70;99.90
24226;DHT22;51462;51.422;5.514;2022-08-21T08:15:44;18.70;99.90
24226;DHT22;51462;51.422;5.514;2022-08-21T08:18:10;18.90;99.90
24226;DHT22;51462;51.422;5.514;2022-08-21T08:20:35;19.00;99.90
24226;DHT22;51462;51.422;5.514;2022-08-21T08:23:01;19.00;99.90
24226;DHT22;51462;51.422;5.514;2022-08-21T08:25:27;18.90;99.90
24226;DHT22;51462;51.422;5.514;2022-08-21T08:27:52;19.00;99.90
24226;DHT22;51462;51.422;5.514;2022-08-21T08:30:19;19.10;99.90
24226;DHT22;51462;51.422;5.514;2022-08-21T08:32:46;19.20;99.90
24226;DHT22;51462;51.422;5.514;2022-08-21T08:35:13;19.20;99.90
24226;DHT22;51462;51.422;5.514;2022-08-21T08:37:39;19.30;99.90
24226;DHT22;51462;51.422;5.514;2022-08-21T08:40:10;19.40;99.90
24226;DHT22;51462;51.422;5.514;2022-08-21T08:42:36;19.60;99.90
24226;DHT22;51462;51.422;5.514;2022-08-21T08:45:07;19.70;99.90
24226;DHT22;51462;51.422;5.514;2022-08-21T08:47:37;19.80;99.90
24226;DHT22;51462;51.422;5.514;2022-08-21T08:50:11;19.80;99.90
24226;DHT22;51462;51.422;5.514;2022-08-21T08:52:47;19.90;99.90
24226;DHT22;51462;51.422;5.514;2022-08-21T08:55:15;20.10;99.90
24226;DHT22;51462;51.422;5.514;2022-08-21T08:57:45;20.00;99.90
24226;DHT22;51462;51.422;5.514;2022-08-21T09:00:13;20.10;99.90
24226;DHT22;51462;51.422;5.514;2022-08-21T09:02:40;20.20;99.90
24226;DHT22;51462;51.422;5.514;2022-08-21T09:05:07;20.00;99.90
24226;DHT22;51462;51.422;5.514;2022-08-21T09:07:40;20.00;99.90
24226;DHT22;51462;51.422;5.514;2022-08-21T09:10:29;20.00;99.90
24226;DHT22;51462;51.422;5.514;2022-08-21T09:12:59;20.00;99.90
24226;DHT22;51462;51.422;5.514;2022-08-21T09:16:07;20.20;99.90
24226;DHT22;51462;51.422;5.514;2022-08-21T09:19:22;20.30;99.90
24226;DHT22;51462;51.422;5.514;2022-08-21T09:22:00;20.20;99.90
24226;DHT22;51462;51.422;5.514;2022-08-21T09:24:55;20.40;99.90
24226;DHT22;51462;51.422;5.514;2022-08-21T09:27:25;20.50;99.90
24226;DHT22;51462;51.422;5.514;2022-08-21T09:29:53;20.80;99.90
24226;DHT22;51462;51.422;5.514;2022-08-21T09:32:26;20.90;99.90
24226;DHT22;51462;51.422;5.514;2022-08-21T09:37:30;21.30;99.90
24226;DHT22;51462;51.422;5.514;2022-08-21T09:39:57;21.30;99.90
24226;DHT22;51462;51.422;5.514;2022-08-21T09:42:28;21.20;99.90
24226;DHT22;51462;51.422;5.514;2022-08-21T09:45:12;21.30;99.90
24226;DHT22;51462;51.422;5.514;2022-08-21T09:47:39;21.30;99.90
24226;DHT22;51462;51.422;5.514;2022-08-21T09:50:13;21.10;99.90
24226;DHT22;51462;51.422;5.514;2022-08-21T09:52:58;20.90;99.90
24226;DHT22;51462;51.422;5.514;2022-08-21T09:55:34;21.00;99.90
24226;DHT22;51462;51.422;5.514;2022-08-21T09:58:20;21.10;99.90
24226;DHT22;51462;51.422;5.514;2022-08-21T10:00:45;21.30;99.90
24226;DHT22;51462;51.422;5.514;2022-08-21T10:03:20;21.40;99.90
24226;DHT22;51462;51.422;5.514;2022-08-21T10:06:05;21.40;99.90
24226;DHT22;51462;51.422;5.514;2022-08-21T10:08:35;21.60;99.90
24226;DHT22;51462;51.422;5.514;2022-08-21T10:11:10;21.60;99.90
24226;DHT22;51462;51.422;5.514;2022-08-21T10:13:54;21.90;99.90
24226;DHT22;51462;51.422;5.514;2022-08-21T10:16:37;21.90;99.90
24226;DHT22;51462;51.422;5.514;2022-08-21T10:19:20;21.90;99.90
24226;DHT22;51462;51.422;5.514;2022-08-21T10:22:00;22.20;99.90
24226;DHT22;51462;51.422;5.514;2022-08-21T10:24:32;22.40;99.90
24226;DHT22;51462;51.422;5.514;2022-08-21T10:27:29;22.10;99.90
24226;DHT22;51462;51.422;5.514;2022-08-21T10:30:13;22.20;99.90
24226;DHT22;51462;51.422;5.514;2022-08-21T10:33:13;22.30;99.90
24226;DHT22;51462;51.422;5.514;2022-08-21T10:36:13;22.40;99.90
24226;DHT22;51462;51.422;5.514;2022-08-21T10:38:59;22.50;99.90
24226;DHT22;51462;51.422;5.514;2022-08-21T10:47:02;22.60;99.90
24226;DHT22;51462;51.422;5.514;2022-08-21T10:55:14;22.80;99.90
24226;DHT22;51462;51.422;5.514;2022-08-21T11:00:19;23.10;99.90
24226;DHT22;51462;51.422;5.514;2022-08-21T11:03:12;23.10;99.90
24226;DHT22;51462;51.422;5.514;2022-08-21T11:05:43;23.10;99.90
24226;DHT22;51462;51.422;5.514;2022-08-21T11:08:29;23.30;99.90
24226;DHT22;51462;51.422;5.514;2022-08-21T11:19:34;23.20;99.90
24226;DHT22;51462;51.422;5.514;2022-08-21T11:22:13;23.10;99.90
24226;DHT22;51462;51.422;5.514;2022-08-21T11:25:03;23.30;99.90
24226;DHT22;51462;51.422;5.514;2022-08-21T11:27:45;23.50;99.90
24226;DHT22;51462;51.422;5.514;2022-08-21T11:30:13;23.70;99.90
24226;DHT22;51462;51.422;5.514;2022-08-21T11:32:57;23.90;99.90
24226;DHT22;51462;51.422;5.514;2022-08-21T11:46:04;24.40;99.90
24226;DHT22;51462;51.422;5.514;2022-08-21T11:51:20;24.10;99.90
24226;DHT22;51462;51.422;5.514;2022-08-21T11:56:34;24.40;99.90
24226;DHT22;51462;51.422;5.514;2022-08-21T11:59:09;24.40;99.90
24226;DHT22;51462;51.422;5.514;2022-08-21T12:01:43;24.10;99.90
24226;DHT22;51462;51.422;5.514;2022-08-21T12:04:22;24.40;99.90
24226;DHT22;51462;51.422;5.514;2022-08-21T12:06:49;24.90;99.90
24226;DHT22;51462;51.422;5.514;2022-08-21T12:12:00;25.40;99.90
24226;DHT22;51462;51.422;5.514;2022-08-21T12:14:37;25.60;99.90
24226;DHT22;51462;51.422;5.514;2022-08-21T12:17:08;25.60;99.90
24226;DHT22;51462;51.422;5.514;2022-08-21T12:19:34;25.70;99.90
24226;DHT22;51462;51.422;5.514;2022-08-21T12:27:27;25.40;99.90
24226;DHT22;51462;51.422;5.514;2022-08-21T12:30:01;25.30;99.90
24226;DHT22;51462;51.422;5.514;2022-08-21T12:32:29;25.50;99.90
24226;DHT22;51462;51.422;5.514;2022-08-21T12:34:58;25.60;99.90
24226;DHT22;51462;51.422;5.514;2022-08-21T12:37:50;25.40;99.90
24226;DHT22;51462;51.422;5.514;2022-08-21T12:40:23;25.50;99.90
24226;DHT22;51462;51.422;5.514;2022-08-21T12:42:52;26.10;99.90
24226;DHT22;51462;51.422;5.514;2022-08-21T12:45:21;26.50;99.90
24226;DHT22;51462;51.422;5.514;2022-08-21T12:48:13;26.50;99.90
24226;DHT22;51462;51.422;5.514;2022-08-21T12:50:42;26.20;99.90
24226;DHT22;51462;51.422;5.514;2022-08-21T12:53:26;26.40;99.90
24226;DHT22;51462;51.422;5.514;2022-08-21T12:55:53;26.90;99.90
24226;DHT22;51462;51.422;5.514;2022-08-21T12:58:25;26.80;99.90
24226;DHT22;51462;51.422;5.514;2022-08-21T13:00:55;27.00;99.90
24226;DHT22;51462;51.422;5.514;2022-08-21T13:03:22;27.40;99.90
24226;DHT22;51462;51.422;5.514;2022-08-21T13:05:48;27.60;99.90
24226;DHT22;51462;51.422;5.514;2022-08-21T13:08:20;27.90;99.90
24226;DHT22;51462;51.422;5.514;2022-08-21T13:10:48;27.60;99.90
24226;DHT22;51462;51.422;5.514;2022-08-21T13:13:21;28.00;99.90
24226;DHT22;51462;51.422;5.514;2022-08-21T13:15:47;28.60;99.90
24226;DHT22;51462;51.422;5.514;2022-08-21T13:18:22;28.40;97.70
24226;DHT22;51462;51.422;5.514;2022-08-21T13:20:48;28.10;99.90
24226;DHT22;51462;51.422;5.514;2022-08-21T13:23:25;28.00;99.90
24226;DHT22;51462;51.422;5.514;2022-08-21T13:25:51;27.70;99.90
24226;DHT22;51462;51.422;5.514;2022-08-21T13:28:17;27.80;99.90
24226;DHT22;51462;51.422;5.514;2022-08-21T13:30:48;27.60;99.90
24226;DHT22;51462;51.422;5.514;2022-08-21T13:33:17;27.80;99.90
24226;DHT22;51462;51.422;5.514;2022-08-21T13:35:52;27.90;99.90
24226;DHT22;51462;51.422;5.514;2022-08-21T13:38:27;27.50;99.90
24226;DHT22;51462;51.422;5.514;2022-08-21T13:40:57;27.50;99.90
24226;DHT22;51462;51.422;5.514;2022-08-21T13:43:27;27.40;99.90
24226;DHT22;51462;51.422;5.514;2022-08-21T13:45:55;27.40;99.90
24226;DHT22;51462;51.422;5.514;2022-08-21T13:48:27;28.00;99.90
24226;DHT22;51462;51.422;5.514;2022-08-21T13:50:54;28.90;99.90
24226;DHT22;51462;51.422;5.514;2022-08-21T13:53:27;29.20;97.20
24226;DHT22;51462;51.422;5.514;2022-08-21T13:55:53;28.60;99.90
24226;DHT22;51462;51.422;5.514;2022-08-21T13:58:27;28.20;99.80
24226;DHT22;51462;51.422;5.514;2022-08-21T14:00:54;27.60;99.90
24226;DHT22;51462;51.422;5.514;2022-08-21T14:03:34;27.60;97.70
24226;DHT22;51462;51.422;5.514;2022-08-21T14:06:02;28.00;98.00
24226;DHT22;51462;51.422;5.514;2022-08-21T14:08:37;28.00;97.80
24226;DHT22;51462;51.422;5.514;2022-08-21T14:11:11;29.00;97.80
24226;DHT22;51462;51.422;5.514;2022-08-21T14:13:41;28.20;99.90
24226;DHT22;51462;51.422;5.514;2022-08-21T14:16:20;28.50;95.90
24226;DHT22;51462;51.422;5.514;2022-08-21T14:18:53;28.10;99.90
24226;DHT22;51462;51.422;5.514;2022-08-21T14:21:45;28.50;96.30
24226;DHT22;51462;51.422;5.514;2022-08-21T14:24:14;28.50;96.10
24226;DHT22;51462;51.422;5.514;2022-08-21T14:26:44;28.80;99.90
24226;DHT22;51462;51.422;5.514;2022-08-21T14:29:13;29.20;96.00
24226;DHT22;51462;51.422;5.514;2022-08-21T14:31:39;29.30;99.90
24226;DHT22;51462;51.422;5.514;2022-08-21T14:34:04;29.30;95.30
24226;DHT22;51462;51.422;5.514;2022-08-21T14:36:30;29.20;97.00
24226;DHT22;51462;51.422;5.514;2022-08-21T14:38:56;29.00;99.90
24226;DHT22;51462;51.422;5.514;2022-08-21T14:41:24;28.70;97.10
24226;DHT22;51462;51.422;5.514;2022-08-21T14:43:52;28.20;99.90
24226;DHT22;51462;51.422;5.514;2022-08-21T14:46:23;28.10;99.20
24226;DHT22;51462;51.422;5.514;2022-08-21T14:48:48;28.10;97.40
24226;DHT22;51462;51.422;5.514;2022-08-21T14:51:14;28.30;99.00
24226;DHT22;51462;51.422;5.514;2022-08-21T14:53:40;28.00;98.20
24226;DHT22;51462;51.422;5.514;2022-08-21T14:56:06;27.90;98.70
24226;DHT22;51462;51.422;5.514;2022-08-21T14:58:38;27.70;99.90
24226;DHT22;51462;51.422;5.514;2022-08-21T15:01:09;27.70;99.90
24226;DHT22;51462;51.422;5.514;2022-08-21T15:03:35;27.30;99.90
24226;DHT22;51462;51.422;5.514;2022-08-21T15:06:02;27.50;98.80
24226;DHT22;51462;51.422;5.514;2022-08-21T15:08:27;27.50;99.90
24226;DHT22;51462;51.422;5.514;2022-08-21T15:10:53;27.90;98.60
24226;DHT22;51462;51.422;5.514;2022-08-21T15:13:20;28.20;98.80
24226;DHT22;51462;51.422;5.514;2022-08-21T15:15:48;27.80;99.90
24226;DHT22;51462;51.422;5.514;2022-08-21T15:18:15;28.00;98.20
24226;DHT22;51462;51.422;5.514;2022-08-21T15:20:41;27.50;98.10
24226;DHT22;51462;51.422;5.514;2022-08-21T15:23:08;27.70;98.40
24226;DHT22;51462;51.422;5.514;2022-08-21T15:25:35;27.60;98.40
24226;DHT22;51462;51.422;5.514;2022-08-21T15:28:01;27.60;98.90
24226;DHT22;51462;51.422;5.514;2022-08-21T15:30:37;27.20;99.30
24226;DHT22;51462;51.422;5.514;2022-08-21T15:33:03;26.80;99.90
24226;DHT22;51462;51.422;5.514;2022-08-21T15:35:29;27.00;99.90
24226;DHT22;51462;51.422;5.514;2022-08-21T15:37:55;26.90;98.80
24226;DHT22;51462;51.422;5.514;2022-08-21T15:40:21;27.20;99.90
24226;DHT22;51462;51.422;5.514;2022-08-21T15:42:47;27.50;99.90
24226;DHT22;51462;51.422;5.514;2022-08-21T15:45:13;27.00;99.90
24226;DHT22;51462;51.422;5.514;2022-08-21T15:47:42;26.80;99.90
24226;DHT22;51462;51.422;5.514;2022-08-21T15:50:10;26.50;99.90
24226;DHT22;51462;51.422;5.514;2022-08-21T15:52:36;26.80;99.90
24226;DHT22;51462;51.422;5.514;2022-08-21T15:55:03;26.80;99.90
24226;DHT22;51462;51.422;5.514;2022-08-21T15:57:30;26.60;99.90
24226;DHT22;51462;51.422;5.514;2022-08-21T16:00:00;26.40;99.90
24226;DHT22;51462;51.422;5.514;2022-08-21T16:02:37;26.50;99.90
24226;DHT22;51462;51.422;5.514;2022-08-21T16:05:03;26.70;99.90
24226;DHT22;51462;51.422;5.514;2022-08-21T16:07:28;26.20;99.90
24226;DHT22;51462;51.422;5.514;2022-08-21T16:09:54;26.10;99.90
24226;DHT22;51462;51.422;5.514;2022-08-21T16:12:24;26.20;99.90
24226;DHT22;51462;51.422;5.514;2022-08-21T16:14:52;26.50;99.90
24226;DHT22;51462;51.422;5.514;2022-08-21T16:17:18;26.50;99.90
24226;DHT22;51462;51.422;5.514;2022-08-21T16:19:44;26.60;99.90
24226;DHT22;51462;51.422;5.514;2022-08-21T16:22:10;26.60;99.90
24226;DHT22;51462;51.422;5.514;2022-08-21T16:24:36;26.50;99.90
24226;DHT22;51462;51.422;5.514;2022-08-21T16:27:02;26.60;99.90
24226;DHT22;51462;51.422;5.514;2022-08-21T16:29:33;26.40;99.90
24226;DHT22;51462;51.422;5.514;2022-08-21T16:31:59;26.10;99.90
24226;DHT22;51462;51.422;5.514;2022-08-21T16:34:25;26.00;99.90
24226;DHT22;51462;51.422;5.514;2022-08-21T16:36:52;26.50;99.90